sensor_id;sensor_type;location;lat;lon;timestamp;pressure;altitude;pressure_sealevel;temperature;humidity
21956;BME280;11142;49.930;8.606;2022-07-29T00:00:22;99950.75;;;22.80;41.44
21956;BME280;11142;49.930;8.606;2022-07-29T00:02:50;99946.38;;;22.64;41.86
21956;BME280;11142;49.930;8.606;2022-07-29T00:05:18;99950.16;;;22.47;42.47
21956;BME280;11142;49.930;8.606;2022-07-29T00:07:47;99945.31;;;22.28;43.00
21956;BME280;11142;49.930;8.606;2022-07-29T00:10:17;99942.44;;;22.14;43.50
21956;BME280;11142;49.930;8.606;2022-07-29T00:12:45;99937.63;;;21.79;44.10
21956;BME280;11142;49.930;8.606;2022-07-29T00:15:13;99934.41;;;21.69;44.44
21956;BME280;11142;49.930;8.606;2022-07-29T00:17:42;99939.41;;;21.56;44.92
21956;BME280;11142;49.930;8.606;2022-07-29T00:20:10;99937.28;;;21.51;45.18
21956;BME280;11142;49.930;8.606;2022-07-29T00:22:39;99946.75;;;21.22;45.70
21956;BME280;11142;49.930;8.606;2022-07-29T00:25:07;99943.50;;;20.95;46.63
21956;BME280;11142;49.930;8.606;2022-07-29T00:27:37;99940.88;;;20.79;47.20
21956;BME280;11142;49.930;8.606;2022-07-29T00:30:06;99940.03;;;20.79;46.79
21956;BME280;11142;49.930;8.606;2022-07-29T00:32:35;99932.78;;;20.81;46.93
21956;BME280;11142;49.930;8.606;2022-07-29T00:35:04;99930.81;;;20.83;46.58
21956;BME280;11142;49.930;8.606;2022-07-29T00:37:49;99941.88;;;20.86;46.71
21956;BME280;11142;49.930;8.606;2022-07-29T00:40:18;99934.25;;;20.91;46.55
21956;BME280;11142;49.930;8.606;2022-07-29T00:42:51;99935.25;;;20.98;46.19
21956;BME280;11142;49.930;8.606;2022-07-29T00:45:19;99928.97;;;21.07;45.61
21956;BME280;11142;49.930;8.606;2022-07-29T00:47:49;99925.03;;;21.11;45.54
21956;BME280;11142;49.930;8.606;2022-07-29T00:50:18;99924.91;;;21.44;45.14
21956;BME280;11142;49.930;8.606;2022-07-29T00:52:46;99923.28;;;21.43;44.62
21956;BME280;11142;49.930;8.606;2022-07-29T00:55:15;99916.97;;;21.52;44.14
21956;BME280;11142;49.930;8.606;2022-07-29T00:57:44;99918.44;;;21.54;43.67
21956;BME280;11142;49.930;8.606;2022-07-29T01:00:19;99914.72;;;21.33;44.09
21956;BME280;11142;49.930;8.606;2022-07-29T01:02:48;99914.44;;;21.28;44.37
21956;BME280;11142;49.930;8.606;2022-07-29T01:05:17;99913.41;;;21.29;44.47
21956;BME280;11142;49.930;8.606;2022-07-29T01:07:47;99909.34;;;21.18;44.60
21956;BME280;11142;49.930;8.606;2022-07-29T01:10:16;99904.38;;;21.23;44.61
21956;BME280;11142;49.930;8.606;2022-07-29T01:12:48;99900.41;;;21.19;44.67
21956;BME280;11142;49.930;8.606;2022-07-29T01:15:18;99895.13;;;21.19;44.46
21956;BME280;11142;49.930;8.606;2022-07-29T01:17:52;99901.25;;;21.03;44.53
21956;BME280;11142;49.930;8.606;2022-07-29T01:20:26;99893.84;;;20.99;44.62
21956;BME280;11142;49.930;8.606;2022-07-29T01:23:12;99887.75;;;20.98;44.40
21956;BME280;11142;49.930;8.606;2022-07-29T01:26:10;99886.59;;;21.01;44.42
21956;BME280;11142;49.930;8.606;2022-07-29T01:28:58;99883.44;;;21.05;44.20
21956;BME280;11142;49.930;8.606;2022-07-29T01:31:41;99868.75;;;21.03;44.01
21956;BME280;11142;49.930;8.606;2022-07-29T01:34:36;99879.81;;;21.06;43.96
21956;BME280;11142;49.930;8.606;2022-07-29T01:37:13;99881.97;;;21.11;43.80
21956;BME280;11142;49.930;8.606;2022-07-29T01:39:43;99871.41;;;21.11;43.83
21956;BME280;11142;49.930;8.606;2022-07-29T01:42:22;99869.91;;;21.08;43.82
21956;BME280;11142;49.930;8.606;2022-07-29T01:44:59;99875.03;;;21.10;43.75
21956;BME280;11142;49.930;8.606;2022-07-29T01:47:33;99869.59;;;21.11;43.77
21956;BME280;11142;49.930;8.606;2022-07-29T01:50:08;99868.59;;;21.12;43.74
21956;BME280;11142;49.930;8.606;2022-07-29T01:52:43;99874.06;;;21.11;43.83
21956;BME280;11142;49.930;8.606;2022-07-29T01:55:14;99868.41;;;21.06;43.84
21956;BME280;11142;49.930;8.606;2022-07-29T01:57:46;99869.59;;;21.03;43.73
21956;BME280;11142;49.930;8.606;2022-07-29T02:00:18;99876.34;;;21.06;43.92
21956;BME280;11142;49.930;8.606;2022-07-29T02:02:48;99873.53;;;21.07;43.88
21956;BME280;11142;49.930;8.606;2022-07-29T02:05:18;99867.47;;;21.15;43.44
21956;BME280;11142;49.930;8.606;2022-07-29T02:07:48;99872.25;;;21.11;43.74
21956;BME280;11142;49.930;8.606;2022-07-29T02:10:20;99870.59;;;21.10;43.49
21956;BME280;11142;49.930;8.606;2022-07-29T02:12:52;99866.28;;;21.09;43.52
21956;BME280;11142;49.930;8.606;2022-07-29T02:15:24;99871.03;;;21.22;43.51
21956;BME280;11142;49.930;8.606;2022-07-29T02:17:56;99871.19;;;21.29;43.26
21956;BME280;11142;49.930;8.606;2022-07-29T02:20:26;99864.63;;;21.16;43.53
21956;BME280;11142;49.930;8.606;2022-07-29T02:22:55;99859.06;;;20.95;43.95
21956;BME280;11142;49.930;8.606;2022-07-29T02:25:25;99859.75;;;20.89;44.18
21956;BME280;11142;49.930;8.606;2022-07-29T02:28:05;99869.28;;;20.98;44.20
21956;BME280;11142;49.930;8.606;2022-07-29T02:30:36;99868.16;;;20.93;44.40
21956;BME280;11142;49.930;8.606;2022-07-29T02:33:07;99857.09;;;20.89;44.50
21956;BME280;11142;49.930;8.606;2022-07-29T02:35:37;99862.19;;;20.91;44.63
21956;BME280;11142;49.930;8.606;2022-07-29T02:38:07;99868.63;;;20.88;44.73
21956;BME280;11142;49.930;8.606;2022-07-29T02:40:54;99861.22;;;20.84;45.16
21956;BME280;11142;49.930;8.606;2022-07-29T02:43:24;99854.47;;;20.81;45.29
21956;BME280;11142;49.930;8.606;2022-07-29T02:45:54;99861.59;;;20.73;45.80
21956;BME280;11142;49.930;8.606;2022-07-29T02:48:28;99852.03;;;20.63;46.16
21956;BME280;11142;49.930;8.606;2022-07-29T02:51:05;99845.94;;;20.63;46.30
21956;BME280;11142;49.930;8.606;2022-07-29T02:53:38;99852.53;;;20.67;46.34
21956;BME280;11142;49.930;8.606;2022-07-29T02:56:12;99856.00;;;20.59;46.59
21956;BME280;11142;49.930;8.606;2022-07-29T02:58:45;99854.69;;;20.55;46.90
21956;BME280;11142;49.930;8.606;2022-07-29T03:01:22;99857.50;;;20.54;47.10
21956;BME280;11142;49.930;8.606;2022-07-29T03:03:52;99856.16;;;20.50;47.46
21956;BME280;11142;49.930;8.606;2022-07-29T03:06:23;99850.72;;;20.43;47.71
21956;BME280;11142;49.930;8.606;2022-07-29T03:09:04;99852.22;;;20.38;47.92
21956;BME280;11142;49.930;8.606;2022-07-29T03:11:40;99849.22;;;20.25;48.39
21956;BME280;11142;49.930;8.606;2022-07-29T03:14:17;99845.94;;;20.23;48.52
21956;BME280;11142;49.930;8.606;2022-07-29T03:16:49;99845.59;;;20.17;48.95
21956;BME280;11142;49.930;8.606;2022-07-29T03:19:19;99858.97;;;20.16;49.18
21956;BME280;11142;49.930;8.606;2022-07-29T03:21:48;99848.25;;;20.09;49.62
21956;BME280;11142;49.930;8.606;2022-07-29T03:24:25;99840.66;;;19.98;50.23
21956;BME280;11142;49.930;8.606;2022-07-29T03:26:54;99853.16;;;19.96;50.35
21956;BME280;11142;49.930;8.606;2022-07-29T03:29:23;99854.47;;;19.84;50.95
21956;BME280;11142;49.930;8.606;2022-07-29T03:32:02;99857.09;;;19.84;51.37
21956;BME280;11142;49.930;8.606;2022-07-29T03:34:35;99852.50;;;19.78;51.44
21956;BME280;11142;49.930;8.606;2022-07-29T03:37:03;99856.25;;;19.76;51.74
21956;BME280;11142;49.930;8.606;2022-07-29T03:39:35;99851.47;;;19.79;51.86
21956;BME280;11142;49.930;8.606;2022-07-29T03:42:06;99843.72;;;19.70;52.08
21956;BME280;11142;49.930;8.606;2022-07-29T03:44:37;99845.84;;;19.66;52.14
21956;BME280;11142;49.930;8.606;2022-07-29T03:47:09;99846.81;;;19.57;52.53
21956;BME280;11142;49.930;8.606;2022-07-29T03:49:40;99843.34;;;19.48;53.10
21956;BME280;11142;49.930;8.606;2022-07-29T03:52:08;99837.06;;;19.41;53.25
21956;BME280;11142;49.930;8.606;2022-07-29T03:54:37;99844.28;;;19.39;53.30
21956;BME280;11142;49.930;8.606;2022-07-29T03:57:07;99836.94;;;19.43;53.48
21956;BME280;11142;49.930;8.606;2022-07-29T03:59:39;99844.81;;;19.43;53.28
21956;BME280;11142;49.930;8.606;2022-07-29T04:02:11;99844.69;;;19.52;52.99
21956;BME280;11142;49.930;8.606;2022-07-29T04:04:42;99838.91;;;19.49;53.20
21956;BME280;11142;49.930;8.606;2022-07-29T04:07:12;99840.72;;;19.40;53.48
21956;BME280;11142;49.930;8.606;2022-07-29T04:09:40;99845.00;;;19.49;53.05
21956;BME280;11142;49.930;8.606;2022-07-29T04:12:09;99848.81;;;19.63;52.45
21956;BME280;11142;49.930;8.606;2022-07-29T04:14:38;99848.78;;;19.47;52.73
21956;BME280;11142;49.930;8.606;2022-07-29T04:17:06;99847.78;;;19.40;52.24
21956;BME280;11142;49.930;8.606;2022-07-29T04:19:35;99849.44;;;19.49;51.95
21956;BME280;11142;49.930;8.606;2022-07-29T04:22:03;99844.88;;;19.59;51.49
21956;BME280;11142;49.930;8.606;2022-07-29T04:24:32;99844.03;;;19.58;51.18
21956;BME280;11142;49.930;8.606;2022-07-29T04:27:00;99853.75;;;19.66;51.22
21956;BME280;11142;49.930;8.606;2022-07-29T04:29:28;99857.06;;;19.76;50.73
21956;BME280;11142;49.930;8.606;2022-07-29T04:31:56;99860.72;;;19.75;50.80
21956;BME280;11142;49.930;8.606;2022-07-29T04:34:24;99856.25;;;19.76;50.70
21956;BME280;11142;49.930;8.606;2022-07-29T04:36:55;99857.06;;;19.76;50.81
21956;BME280;11142;49.930;8.606;2022-07-29T04:39:23;99857.75;;;19.78;50.77
21956;BME280;11142;49.930;8.606;2022-07-29T04:41:56;99862.69;;;19.81;50.64
21956;BME280;11142;49.930;8.606;2022-07-29T04:44:24;99858.59;;;19.79;50.75
21956;BME280;11142;49.930;8.606;2022-07-29T04:46:55;99855.81;;;19.96;50.24
21956;BME280;11142;49.930;8.606;2022-07-29T04:49:23;99864.06;;;20.26;49.54
21956;BME280;11142;49.930;8.606;2022-07-29T04:51:52;99857.97;;;20.49;48.57
21956;BME280;11142;49.930;8.606;2022-07-29T04:54:21;99855.66;;;20.62;48.71
21956;BME280;11142;49.930;8.606;2022-07-29T04:56:51;99863.06;;;20.83;47.97
21956;BME280;11142;49.930;8.606;2022-07-29T04:59:19;99857.44;;;20.78;48.23
21956;BME280;11142;49.930;8.606;2022-07-29T05:01:46;99862.19;;;20.99;47.39
21956;BME280;11142;49.930;8.606;2022-07-29T05:04:15;99859.22;;;21.02;47.38
21956;BME280;11142;49.930;8.606;2022-07-29T05:06:43;99858.88;;;21.13;47.45
21956;BME280;11142;49.930;8.606;2022-07-29T05:09:11;99867.56;;;21.22;47.27
21956;BME280;11142;49.930;8.606;2022-07-29T05:11:41;99870.50;;;21.35;46.68
21956;BME280;11142;49.930;8.606;2022-07-29T05:14:08;99868.81;;;21.42;46.77
21956;BME280;11142;49.930;8.606;2022-07-29T05:16:37;99873.13;;;21.73;45.43
21956;BME280;11142;49.930;8.606;2022-07-29T05:19:06;99874.91;;;21.81;45.42
21956;BME280;11142;49.930;8.606;2022-07-29T05:21:40;99874.03;;;21.58;45.60
21956;BME280;11142;49.930;8.606;2022-07-29T05:24:09;99871.34;;;21.97;44.66
21956;BME280;11142;49.930;8.606;2022-07-29T05:26:39;99868.72;;;22.19;44.37
21956;BME280;11142;49.930;8.606;2022-07-29T05:29:08;99876.09;;;22.47;43.66
21956;BME280;11142;49.930;8.606;2022-07-29T05:31:57;99877.38;;;22.73;43.12
21956;BME280;11142;49.930;8.606;2022-07-29T05:34:26;99879.41;;;22.86;42.72
21956;BME280;11142;49.930;8.606;2022-07-29T05:36:54;99877.88;;;22.32;43.26
21956;BME280;11142;49.930;8.606;2022-07-29T05:39:22;99878.47;;;22.19;43.79
21956;BME280;11142;49.930;8.606;2022-07-29T05:42:11;99878.00;;;22.15;44.46
21956;BME280;11142;49.930;8.606;2022-07-29T05:44:40;99882.47;;;21.84;44.91
21956;BME280;11142;49.930;8.606;2022-07-29T05:47:09;99877.34;;;21.91;44.80
21956;BME280;11142;49.930;8.606;2022-07-29T05:49:38;99877.91;;;22.46;43.51
21956;BME280;11142;49.930;8.606;2022-07-29T05:52:06;99883.09;;;22.77;43.06
21956;BME280;11142;49.930;8.606;2022-07-29T05:54:34;99880.66;;;22.75;42.49
21956;BME280;11142;49.930;8.606;2022-07-29T05:57:03;99876.84;;;23.37;40.88
21956;BME280;11142;49.930;8.606;2022-07-29T05:59:35;99884.53;;;23.46;40.99
21956;BME280;11142;49.930;8.606;2022-07-29T06:02:05;99877.34;;;23.76;40.68
21956;BME280;11142;49.930;8.606;2022-07-29T06:04:33;99885.78;;;23.65;40.27
21956;BME280;11142;49.930;8.606;2022-07-29T06:07:01;99878.66;;;23.36;41.27
21956;BME280;11142;49.930;8.606;2022-07-29T06:09:30;99884.69;;;23.95;40.03
21956;BME280;11142;49.930;8.606;2022-07-29T06:12:02;99885.03;;;24.28;39.52
21956;BME280;11142;49.930;8.606;2022-07-29T06:14:30;99890.75;;;24.53;38.85
21956;BME280;11142;49.930;8.606;2022-07-29T06:16:59;99886.34;;;24.60;38.65
21956;BME280;11142;49.930;8.606;2022-07-29T06:19:28;99892.09;;;24.63;37.76
21956;BME280;11142;49.930;8.606;2022-07-29T06:21:56;99891.81;;;24.58;37.86
21956;BME280;11142;49.930;8.606;2022-07-29T06:24:27;99891.25;;;24.63;37.96
21956;BME280;11142;49.930;8.606;2022-07-29T06:26:55;99885.06;;;24.56;37.92
21956;BME280;11142;49.930;8.606;2022-07-29T06:29:23;99886.38;;;24.39;38.03
21956;BME280;11142;49.930;8.606;2022-07-29T06:31:51;99885.72;;;24.37;37.30
21956;BME280;11142;49.930;8.606;2022-07-29T06:34:19;99887.78;;;24.62;37.62
21956;BME280;11142;49.930;8.606;2022-07-29T06:36:49;99892.03;;;24.57;37.46
21956;BME280;11142;49.930;8.606;2022-07-29T06:39:19;99884.94;;;24.64;37.08
21956;BME280;11142;49.930;8.606;2022-07-29T06:41:48;99885.94;;;24.84;36.89
21956;BME280;11142;49.930;8.606;2022-07-29T06:44:20;99889.16;;;25.07;36.58
21956;BME280;11142;49.930;8.606;2022-07-29T06:46:59;99896.16;;;25.21;36.00
21956;BME280;11142;49.930;8.606;2022-07-29T06:49:29;99897.25;;;25.27;36.65
21956;BME280;11142;49.930;8.606;2022-07-29T06:51:58;99897.84;;;25.70;35.61
21956;BME280;11142;49.930;8.606;2022-07-29T06:54:26;99902.81;;;25.86;35.26
21956;BME280;11142;49.930;8.606;2022-07-29T06:56:54;99902.63;;;25.94;35.03
21956;BME280;11142;49.930;8.606;2022-07-29T06:59:22;99905.06;;;25.89;36.37
21956;BME280;11142;49.930;8.606;2022-07-29T07:02:00;99916.63;;;26.29;34.65
21956;BME280;11142;49.930;8.606;2022-07-29T07:04:29;99917.66;;;26.21;35.33
21956;BME280;11142;49.930;8.606;2022-07-29T07:06:58;99916.06;;;26.79;34.48
21956;BME280;11142;49.930;8.606;2022-07-29T07:09:26;99916.88;;;27.06;33.98
21956;BME280;11142;49.930;8.606;2022-07-29T07:12:06;99915.28;;;27.63;33.72
21956;BME280;11142;49.930;8.606;2022-07-29T07:14:34;99922.19;;;28.53;31.80
21956;BME280;11142;49.930;8.606;2022-07-29T07:17:03;99930.09;;;28.41;32.05
21956;BME280;11142;49.930;8.606;2022-07-29T07:19:33;99920.56;;;26.66;34.56
21956;BME280;11142;49.930;8.606;2022-07-29T07:22:03;99919.13;;;27.09;33.44
21956;BME280;11142;49.930;8.606;2022-07-29T07:24:32;99930.34;;;27.95;32.83
21956;BME280;11142;49.930;8.606;2022-07-29T07:27:00;99928.69;;;28.63;31.92
21956;BME280;11142;49.930;8.606;2022-07-29T07:29:29;99923.47;;;28.75;31.59
21956;BME280;11142;49.930;8.606;2022-07-29T07:31:58;99933.56;;;29.16;31.25
21956;BME280;11142;49.930;8.606;2022-07-29T07:34:27;99940.00;;;29.33;30.33
21956;BME280;11142;49.930;8.606;2022-07-29T07:36:56;99936.94;;;29.66;30.19
21956;BME280;11142;49.930;8.606;2022-07-29T07:39:26;99937.69;;;29.55;30.17
21956;BME280;11142;49.930;8.606;2022-07-29T07:41:54;99934.50;;;29.28;30.49
21956;BME280;11142;49.930;8.606;2022-07-29T07:44:22;99938.00;;;29.28;30.49
21956;BME280;11142;49.930;8.606;2022-07-29T07:46:50;99926.03;;;29.31;30.87
21956;BME280;11142;49.930;8.606;2022-07-29T07:49:20;99928.47;;;29.50;30.03
21956;BME280;11142;49.930;8.606;2022-07-29T07:51:49;99927.44;;;29.51;30.82
21956;BME280;11142;49.930;8.606;2022-07-29T07:54:18;99938.78;;;30.01;30.16
21956;BME280;11142;49.930;8.606;2022-07-29T07:56:47;99933.31;;;30.38;28.99
21956;BME280;11142;49.930;8.606;2022-07-29T07:59:19;99930.88;;;31.01;29.28
21956;BME280;11142;49.930;8.606;2022-07-29T08:01:48;99936.78;;;30.91;28.67
21956;BME280;11142;49.930;8.606;2022-07-29T08:04:22;99933.38;;;30.20;30.50
21956;BME280;11142;49.930;8.606;2022-07-29T08:06:55;99937.50;;;31.10;29.33
21956;BME280;11142;49.930;8.606;2022-07-29T08:09:25;99930.69;;;30.20;31.04
21956;BME280;11142;49.930;8.606;2022-07-29T08:11:58;99928.19;;;31.13;29.27
21956;BME280;11142;49.930;8.606;2022-07-29T08:14:29;99935.91;;;32.00;28.19
21956;BME280;11142;49.930;8.606;2022-07-29T08:16:57;99928.72;;;32.63;27.49
21956;BME280;11142;49.930;8.606;2022-07-29T08:19:26;99934.28;;;32.73;27.84
21956;BME280;11142;49.930;8.606;2022-07-29T08:21:57;99918.06;;;32.23;28.11
21956;BME280;11142;49.930;8.606;2022-07-29T08:24:25;99934.03;;;32.01;28.93
21956;BME280;11142;49.930;8.606;2022-07-29T08:27:26;99930.06;;;33.15;28.25
21956;BME280;11142;49.930;8.606;2022-07-29T08:30:12;99937.16;;;32.38;28.70
21956;BME280;11142;49.930;8.606;2022-07-29T08:32:42;99947.56;;;34.21;26.95
21956;BME280;11142;49.930;8.606;2022-07-29T08:35:21;99942.84;;;36.26;25.13
21956;BME280;11142;49.930;8.606;2022-07-29T08:37:50;99946.59;;;37.26;24.04
21956;BME280;11142;49.930;8.606;2022-07-29T08:40:19;99958.50;;;37.99;23.50
21956;BME280;11142;49.930;8.606;2022-07-29T08:43:04;99949.84;;;37.23;23.34
21956;BME280;11142;49.930;8.606;2022-07-29T08:45:42;99947.22;;;36.62;24.94
21956;BME280;11142;49.930;8.606;2022-07-29T08:48:15;99946.66;;;36.76;24.95
21956;BME280;11142;49.930;8.606;2022-07-29T08:50:45;99945.84;;;36.50;25.29
21956;BME280;11142;49.930;8.606;2022-07-29T08:53:17;99933.97;;;32.24;31.08
21956;BME280;11142;49.930;8.606;2022-07-29T08:55:46;99932.38;;;31.08;32.80
21956;BME280;11142;49.930;8.606;2022-07-29T08:58:19;99940.75;;;33.48;29.76
21956;BME280;11142;49.930;8.606;2022-07-29T09:00:52;99948.41;;;35.27;27.54
21956;BME280;11142;49.930;8.606;2022-07-29T09:03:24;99945.28;;;35.50;26.94
21956;BME280;11142;49.930;8.606;2022-07-29T09:05:54;99942.56;;;32.88;30.54
21956;BME280;11142;49.930;8.606;2022-07-29T09:08:23;99932.97;;;32.75;31.10
21956;BME280;11142;49.930;8.606;2022-07-29T09:10:52;99928.72;;;31.61;32.97
21956;BME280;11142;49.930;8.606;2022-07-29T09:13:22;99926.56;;;32.31;31.82
21956;BME280;11142;49.930;8.606;2022-07-29T09:15:50;99932.47;;;33.33;30.23
21956;BME280;11142;49.930;8.606;2022-07-29T09:18:36;99931.47;;;32.34;31.95
21956;BME280;11142;49.930;8.606;2022-07-29T09:21:06;99932.31;;;31.43;32.79
21956;BME280;11142;49.930;8.606;2022-07-29T09:24:01;99924.53;;;31.42;32.61
21956;BME280;11142;49.930;8.606;2022-07-29T09:26:31;99926.75;;;31.22;33.19
21956;BME280;11142;49.930;8.606;2022-07-29T09:29:08;99923.94;;;30.29;34.77
21956;BME280;11142;49.930;8.606;2022-07-29T09:31:38;99918.94;;;28.51;37.68
21956;BME280;11142;49.930;8.606;2022-07-29T09:34:08;99920.53;;;30.40;34.65
21956;BME280;11142;49.930;8.606;2022-07-29T09:36:41;99923.81;;;30.53;34.74
21956;BME280;11142;49.930;8.606;2022-07-29T09:39:10;99918.25;;;31.36;33.77
21956;BME280;11142;49.930;8.606;2022-07-29T09:41:47;99917.34;;;32.27;33.22
21956;BME280;11142;49.930;8.606;2022-07-29T09:44:20;99921.84;;;33.43;31.28
21956;BME280;11142;49.930;8.606;2022-07-29T09:46:56;99914.25;;;33.40;31.12
21956;BME280;11142;49.930;8.606;2022-07-29T09:49:25;99916.78;;;33.69;30.23
21956;BME280;11142;49.930;8.606;2022-07-29T09:52:04;99915.41;;;33.06;31.05
21956;BME280;11142;49.930;8.606;2022-07-29T09:54:33;99923.97;;;33.03;31.84
21956;BME280;11142;49.930;8.606;2022-07-29T09:57:06;99915.94;;;33.46;30.59
21956;BME280;11142;49.930;8.606;2022-07-29T09:59:55;99922.41;;;33.45;30.75
21956;BME280;11142;49.930;8.606;2022-07-29T10:02:28;99919.72;;;34.42;29.51
21956;BME280;11142;49.930;8.606;2022-07-29T10:04:56;99921.34;;;35.17;28.83
21956;BME280;11142;49.930;8.606;2022-07-29T10:07:25;99922.16;;;35.69;27.62
21956;BME280;11142;49.930;8.606;2022-07-29T10:09:55;99917.25;;;35.61;27.67
21956;BME280;11142;49.930;8.606;2022-07-29T10:12:24;99923.66;;;36.68;26.29
21956;BME280;11142;49.930;8.606;2022-07-29T10:14:53;99914.88;;;37.26;25.56
21956;BME280;11142;49.930;8.606;2022-07-29T10:17:22;99920.84;;;37.23;25.76
21956;BME280;11142;49.930;8.606;2022-07-29T10:19:50;99910.69;;;33.35;30.31
21956;BME280;11142;49.930;8.606;2022-07-29T10:22:19;99905.72;;;35.19;28.72
21956;BME280;11142;49.930;8.606;2022-07-29T10:25:09;99919.22;;;37.28;25.20
21956;BME280;11142;49.930;8.606;2022-07-29T10:27:37;99922.97;;;38.35;24.27
21956;BME280;11142;49.930;8.606;2022-07-29T10:30:08;99924.66;;;40.58;21.84
21956;BME280;11142;49.930;8.606;2022-07-29T10:32:48;99928.94;;;38.70;24.00
21956;BME280;11142;49.930;8.606;2022-07-29T10:38:42;99917.66;;;36.96;25.57
21956;BME280;11142;49.930;8.606;2022-07-29T10:41:34;99913.31;;;37.15;25.51
21956;BME280;11142;49.930;8.606;2022-07-29T10:44:14;99912.53;;;36.19;27.29
21956;BME280;11142;49.930;8.606;2022-07-29T10:46:46;99922.44;;;39.00;23.63
21956;BME280;11142;49.930;8.606;2022-07-29T10:49:15;99918.81;;;39.10;23.77
21956;BME280;11142;49.930;8.606;2022-07-29T10:52:08;99916.75;;;40.75;22.26
21956;BME280;11142;49.930;8.606;2022-07-29T10:54:48;99911.00;;;40.90;21.81
21956;BME280;11142;49.930;8.606;2022-07-29T10:57:20;99914.13;;;41.65;20.85
21956;BME280;11142;49.930;8.606;2022-07-29T11:00:29;99889.00;;;35.27;27.40
21956;BME280;11142;49.930;8.606;2022-07-29T11:03:01;99896.59;;;36.83;25.76
21956;BME280;11142;49.930;8.606;2022-07-29T11:05:52;99882.94;;;37.29;25.14
21956;BME280;11142;49.930;8.606;2022-07-29T11:08:23;99887.41;;;36.29;26.43
21956;BME280;11142;49.930;8.606;2022-07-29T11:14:03;99875.25;;;32.33;32.34
21956;BME280;11142;49.930;8.606;2022-07-29T11:17:02;99870.38;;;33.40;30.18
21956;BME280;11142;49.930;8.606;2022-07-29T11:19:35;99871.34;;;32.07;32.18
21956;BME280;11142;49.930;8.606;2022-07-29T11:22:31;99861.28;;;32.64;32.00
21956;BME280;11142;49.930;8.606;2022-07-29T11:25:12;99864.50;;;32.16;32.44
21956;BME280;11142;49.930;8.606;2022-07-29T11:27:42;99865.81;;;33.40;30.31
21956;BME280;11142;49.930;8.606;2022-07-29T11:30:13;99870.13;;;35.27;28.22
21956;BME280;11142;49.930;8.606;2022-07-29T11:32:44;99888.31;;;37.88;24.81
21956;BME280;11142;49.930;8.606;2022-07-29T11:35:18;99893.53;;;39.94;22.57
21956;BME280;11142;49.930;8.606;2022-07-29T11:38:25;99895.28;;;41.01;21.18
21956;BME280;11142;49.930;8.606;2022-07-29T11:41:19;99890.28;;;40.29;22.03
21956;BME280;11142;49.930;8.606;2022-07-29T11:43:50;99892.53;;;42.05;19.54
21956;BME280;11142;49.930;8.606;2022-07-29T11:46:42;99891.72;;;42.79;19.57
21956;BME280;11142;49.930;8.606;2022-07-29T11:49:12;99902.00;;;45.23;16.87
21956;BME280;11142;49.930;8.606;2022-07-29T11:51:50;99900.13;;;45.65;16.70
21956;BME280;11142;49.930;8.606;2022-07-29T11:54:24;99877.88;;;42.45;19.25
21956;BME280;11142;49.930;8.606;2022-07-29T11:56:53;99875.22;;;40.51;21.01
21956;BME280;11142;49.930;8.606;2022-07-29T11:59:22;99876.41;;;41.95;19.86
21956;BME280;11142;49.930;8.606;2022-07-29T12:02:01;99877.75;;;43.20;18.43
21956;BME280;11142;49.930;8.606;2022-07-29T12:04:49;99894.47;;;48.33;15.01
21956;BME280;11142;49.930;8.606;2022-07-29T12:07:26;99888.22;;;48.95;14.38
21956;BME280;11142;49.930;8.606;2022-07-29T12:10:03;99876.41;;;46.55;16.16
21956;BME280;11142;49.930;8.606;2022-07-29T12:12:51;99870.28;;;44.84;17.42
21956;BME280;11142;49.930;8.606;2022-07-29T12:15:21;99877.72;;;45.63;16.65
21956;BME280;11142;49.930;8.606;2022-07-29T12:18:13;99873.50;;;48.75;13.93
21956;BME280;11142;49.930;8.606;2022-07-29T12:20:44;99899.03;;;52.15;12.23
21956;BME280;11142;49.930;8.606;2022-07-29T12:23:15;99897.03;;;53.65;11.46
21956;BME280;11142;49.930;8.606;2022-07-29T12:25:44;99903.00;;;55.82;10.26
21956;BME280;11142;49.930;8.606;2022-07-29T12:28:16;99900.09;;;56.03;10.10
21956;BME280;11142;49.930;8.606;2022-07-29T12:30:53;99891.91;;;56.85;9.01
21956;BME280;11142;49.930;8.606;2022-07-29T12:33:24;99889.06;;;57.26;9.04
21956;BME280;11142;49.930;8.606;2022-07-29T12:35:54;99878.91;;;55.16;9.44
21956;BME280;11142;49.930;8.606;2022-07-29T12:38:35;99845.91;;;47.57;13.95
21956;BME280;11142;49.930;8.606;2022-07-29T12:41:03;99853.34;;;48.71;13.67
21956;BME280;11142;49.930;8.606;2022-07-29T12:43:32;99867.31;;;52.12;11.40
21956;BME280;11142;49.930;8.606;2022-07-29T12:46:12;99858.28;;;54.00;10.62
21956;BME280;11142;49.930;8.606;2022-07-29T12:48:42;99863.44;;;55.22;9.79
21956;BME280;11142;49.930;8.606;2022-07-29T12:51:11;99851.25;;;52.28;11.15
21956;BME280;11142;49.930;8.606;2022-07-29T12:54:02;99842.34;;;50.40;12.40
21956;BME280;11142;49.930;8.606;2022-07-29T12:56:30;99834.78;;;48.68;13.42
21956;BME280;11142;49.930;8.606;2022-07-29T12:59:13;99817.63;;;45.49;15.78
21956;BME280;11142;49.930;8.606;2022-07-29T13:01:42;99814.78;;;43.68;17.35
21956;BME280;11142;49.930;8.606;2022-07-29T13:04:10;99795.31;;;38.55;22.19
21956;BME280;11142;49.930;8.606;2022-07-29T13:06:40;99794.53;;;36.94;23.79
21956;BME280;11142;49.930;8.606;2022-07-29T13:09:19;99791.31;;;36.87;24.14
21956;BME280;11142;49.930;8.606;2022-07-29T13:11:50;99781.34;;;33.68;28.36
21956;BME280;11142;49.930;8.606;2022-07-29T13:14:30;99785.91;;;35.25;26.72
21956;BME280;11142;49.930;8.606;2022-07-29T13:17:04;99785.41;;;35.38;25.97
21956;BME280;11142;49.930;8.606;2022-07-29T13:19:35;99786.59;;;33.31;28.93
21956;BME280;11142;49.930;8.606;2022-07-29T13:22:04;99787.06;;;33.23;28.94
21956;BME280;11142;49.930;8.606;2022-07-29T13:24:34;99774.81;;;33.37;29.31
21956;BME280;11142;49.930;8.606;2022-07-29T13:27:13;99775.63;;;32.18;30.78
21956;BME280;11142;49.930;8.606;2022-07-29T13:29:42;99771.13;;;31.90;31.24
21956;BME280;11142;49.930;8.606;2022-07-29T13:32:11;99768.34;;;32.35;30.54
21956;BME280;11142;49.930;8.606;2022-07-29T13:34:40;99771.75;;;31.97;30.94